Time;durP1;ratioP1;P1;durP2;ratioP2;P2;SDS_P1;SDS_P2;PMS_P1;PMS_P2;Temp;Humidity;BMP_temperature;BMP_pressure;BME280_temperature;BME280_humidity;BME280_pressure;Samples;Min_cycle;Max_cycle;Signal;HPM_P1;HPM_P2
2023/02/26 00:00:56;;;;;;;1.17;1.07;;;2.90;99.90;;;;;;4925511;28;20462;-67
2023/02/26 00:03:22;;;;;;;2.40;1.20;;;3.00;99.90;;;;;;4927300;28;20222;-69
2023/02/26 00:05:47;;;;;;;1.50;1.37;;;3.00;99.90;;;;;;4946831;28;20230;-69
2023/02/26 00:08:13;;;;;;;1.10;1.00;;;2.90;99.90;;;;;;4921818;29;20230;-69
2023/02/26 00:10:39;;;;;;;1.50;1.03;;;3.00;99.90;;;;;;4923091;29;20227;-69
2023/02/26 00:13:05;;;;;;;2.03;1.10;;;2.90;99.90;;;;;;4922350;29;20257;-69
2023/02/26 00:15:31;;;;;;;1.83;1.73;;;2.80;99.90;;;;;;4926636;29;20230;-69
2023/02/26 00:18:05;;;;;;;1.47;1.20;;;2.80;99.90;;;;;;4929257;28;20247;-69
2023/02/26 00:20:31;;;;;;;1.27;1.10;;;2.80;99.90;;;;;;4925459;28;20530;-69
2023/02/26 00:22:57;;;;;;;2.10;1.40;;;2.80;99.90;;;;;;4954615;28;20466;-69
2023/02/26 00:25:23;;;;;;;2.83;1.37;;;2.90;99.90;;;;;;4931387;29;20468;-69
2023/02/26 00:27:49;;;;;;;0.87;0.73;;;2.80;99.90;;;;;;4916957;28;20858;-68
2023/02/26 00:30:15;;;;;;;1.30;1.13;;;2.90;99.90;;;;;;4938160;28;20301;-68
2023/02/26 00:32:41;;;;;;;1.33;1.23;;;2.90;99.90;;;;;;4921308;28;20222;-68
2023/02/26 00:35:11;;;;;;;2.60;1.37;;;2.80;99.90;;;;;;4932644;28;20457;-69
2023/02/26 00:37:42;;;;;;;1.57;1.30;;;2.90;99.90;;;;;;4930444;28;20467;-69
2023/02/26 00:40:34;;;;;;;2.20;1.60;;;2.90;99.90;;;;;;4923773;28;20475;-69
2023/02/26 00:43:00;;;;;;;2.90;1.80;;;2.90;99.90;;;;;;4902873;29;20475;-66
2023/02/26 00:45:26;;;;;;;1.30;1.20;;;2.90;99.90;;;;;;4905382;29;20471;-69
2023/02/26 00:48:17;;;;;;;1.43;1.13;;;3.00;99.90;;;;;;4906969;28;20478;-69
2023/02/26 00:50:55;;;;;;;2.20;1.27;;;2.90;99.90;;;;;;4924606;28;20227;-69
2023/02/26 00:53:34;;;;;;;2.97;1.37;;;2.80;99.90;;;;;;4942957;28;20458;-68
2023/02/26 00:56:00;;;;;;;1.60;1.50;;;2.90;99.90;;;;;;4937918;28;21024;-68
2023/02/26 00:58:26;;;;;;;2.07;1.40;;;2.90;99.90;;;;;;4906828;29;20471;-68
2023/02/26 01:00:51;;;;;;;2.30;1.27;;;3.00;99.90;;;;;;4928790;28;20223;-69
2023/02/26 01:03:17;;;;;;;1.97;1.30;;;3.00;99.90;;;;;;4925364;28;20269;-69
2023/02/26 01:05:43;;;;;;;2.37;1.27;;;3.00;99.90;;;;;;4918714;28;20288;-69
2023/02/26 01:08:35;;;;;;;1.43;1.20;;;3.10;99.90;;;;;;4921701;29;20563;-69
2023/02/26 01:11:01;;;;;;;2.40;1.73;;;3.00;99.90;;;;;;4915830;29;20493;-69
2023/02/26 01:13:27;;;;;;;3.53;1.50;;;2.90;99.90;;;;;;4923946;29;20480;-69
2023/02/26 01:16:03;;;;;;;5.10;1.30;;;2.90;99.90;;;;;;4919925;28;20233;-69
2023/02/26 01:18:40;;;;;;;2.00;1.50;;;2.80;99.90;;;;;;4936793;28;20222;-68
2023/02/26 01:21:13;;;;;;;1.67;1.40;;;2.80;99.90;;;;;;4923943;29;20470;-69
2023/02/26 01:23:43;;;;;;;1.17;1.17;;;2.90;99.90;;;;;;4919957;28;20493;-69
2023/02/26 01:26:24;;;;;;;1.33;1.23;;;2.90;99.90;;;;;;4933402;28;20587;-69
2023/02/26 01:28:51;;;;;;;1.23;1.00;;;3.00;99.90;;;;;;4918610;29;20515;-69
2023/02/26 01:31:33;;;;;;;1.53;1.40;;;3.00;99.90;;;;;;4903868;29;20490;-68
2023/02/26 01:34:10;;;;;;;1.57;1.33;;;2.90;99.90;;;;;;4903496;29;20486;-68
2023/02/26 01:36:42;;;;;;;3.50;1.20;;;2.90;99.90;;;;;;4934119;28;20474;-70
2023/02/26 01:39:15;;;;;;;1.23;1.00;;;2.90;99.90;;;;;;4931451;29;20492;-69
2023/02/26 01:41:47;;;;;;;1.60;1.40;;;2.90;99.90;;;;;;4941394;28;20482;-69
2023/02/26 01:44:37;;;;;;;1.53;1.20;;;2.90;99.90;;;;;;4920451;28;20480;-69
2023/02/26 01:47:06;;;;;;;1.30;1.20;;;2.80;99.90;;;;;;4907987;29;20489;-68
2023/02/26 01:49:33;;;;;;;1.77;1.47;;;2.80;99.90;;;;;;4920101;29;20498;-68
2023/02/26 01:52:23;;;;;;;0.87;0.80;;;2.70;99.90;;;;;;4936904;28;20468;-67
2023/02/26 01:54:48;;;;;;;1.33;1.10;;;2.70;99.90;;;;;;4917091;29;20482;-68
2023/02/26 01:57:17;;;;;;;2.07;1.40;;;2.60;99.90;;;;;;4917555;29;20471;-69
2023/02/26 01:59:45;;;;;;;1.90;1.70;;;2.60;99.90;;;;;;4918315;28;20221;-69
2023/02/26 02:02:15;;;;;;;3.03;1.00;;;2.60;99.90;;;;;;4923827;29;20529;-69
2023/02/26 02:04:42;;;;;;;1.93;1.07;;;2.70;99.90;;;;;;4914246;29;20466;-68
2023/02/26 02:07:08;;;;;;;1.03;0.83;;;2.70;99.90;;;;;;4916052;28;20483;-68
2023/02/26 02:09:34;;;;;;;1.57;1.30;;;2.70;99.90;;;;;;4921985;29;20487;-68
2023/02/26 02:12:06;;;;;;;2.13;1.40;;;2.80;99.90;;;;;;4938451;28;20481;-67
2023/02/26 02:14:41;;;;;;;1.40;1.20;;;2.80;99.90;;;;;;4936132;28;20219;-68
2023/02/26 02:17:13;;;;;;;4.27;1.40;;;2.80;99.90;;;;;;4927606;28;20474;-65
2023/02/26 02:20:05;;;;;;;2.70;1.30;;;2.80;99.90;;;;;;4940462;28;20536;-69
2023/02/26 02:22:42;;;;;;;5.60;1.33;;;2.70;99.90;;;;;;4934286;28;20457;-68
2023/02/26 02:25:15;;;;;;;1.50;1.00;;;2.70;99.90;;;;;;4910290;29;20512;-69
2023/02/26 02:28:05;;;;;;;1.60;0.93;;;2.80;99.90;;;;;;4917520;29;20558;-69
2023/02/26 02:31:12;;;;;;;3.13;1.07;;;2.70;99.90;;;;;;4902928;29;20474;-68
2023/02/26 02:33:50;;;;;;;6.10;1.50;;;2.60;99.90;;;;;;4922346;28;21004;-69
2023/02/26 02:36:27;;;;;;;1.27;0.90;;;2.50;99.90;;;;;;4927002;29;21016;-69
2023/02/26 02:39:20;;;;;;;2.13;1.20;;;2.50;99.90;;;;;;4935969;28;20465;-69
2023/02/26 02:41:52;;;;;;;2.50;1.67;;;2.60;99.90;;;;;;4930721;28;20453;-69
2023/02/26 02:44:20;;;;;;;1.87;1.40;;;2.60;99.90;;;;;;4911035;29;20474;-69
2023/02/26 02:46:49;;;;;;;5.23;1.57;;;2.50;99.90;;;;;;4932414;28;20454;-69
2023/02/26 02:49:29;;;;;;;2.03;1.10;;;2.40;99.90;;;;;;4928674;29;20546;-69
2023/02/26 02:52:27;;;;;;;1.50;1.37;;;2.40;99.90;;;;;;4914695;28;20502;-68
2023/02/26 02:55:09;;;;;;;1.20;1.03;;;2.30;99.90;;;;;;4924220;28;20472;-68
2023/02/26 02:57:51;;;;;;;2.73;1.10;;;2.30;99.90;;;;;;4927167;29;20474;-68
2023/02/26 03:00:21;;;;;;;1.43;1.17;;;2.20;99.90;;;;;;4922222;29;20609;-69
2023/02/26 03:03:02;;;;;;;2.20;1.27;;;2.20;99.90;;;;;;4924092;29;20480;-69
2023/02/26 03:05:28;;;;;;;1.10;0.90;;;2.20;99.90;;;;;;4930432;29;20492;-68
2023/02/26 03:07:58;;;;;;;1.57;1.20;;;2.20;99.90;;;;;;4929346;28;20471;-68
2023/02/26 03:10:23;;;;;;;1.43;1.10;;;2.20;99.90;;;;;;4923596;29;20229;-69
2023/02/26 03:12:49;;;;;;;2.10;1.27;;;2.10;99.90;;;;;;4913051;28;20446;-69
2023/02/26 03:15:35;;;;;;;1.07;0.97;;;2.10;99.90;;;;;;4936939;28;20206;-69
2023/02/26 03:18:19;;;;;;;1.77;1.40;;;2.10;99.90;;;;;;4916381;29;20246;-68
2023/02/26 03:20:59;;;;;;;3.90;1.67;;;2.20;99.90;;;;;;4904367;29;20472;-68
2023/02/26 03:23:34;;;;;;;1.93;1.23;;;2.20;99.90;;;;;;4934588;28;20459;-68
2023/02/26 03:26:10;;;;;;;1.33;1.00;;;2.20;99.90;;;;;;4918160;28;20549;-68
2023/02/26 03:28:58;;;;;;;1.13;1.03;;;2.10;99.90;;;;;;4938975;28;20482;-69
2023/02/26 03:31:32;;;;;;;1.57;0.93;;;2.10;99.90;;;;;;4917733;29;20484;-69
2023/02/26 03:34:00;;;;;;;1.80;1.10;;;2.00;99.90;;;;;;4902810;28;20455;-69
2023/02/26 03:36:32;;;;;;;3.07;1.47;;;2.20;99.90;;;;;;4917684;29;20477;-68
2023/02/26 03:39:39;;;;;;;1.70;1.23;;;2.30;99.90;;;;;;4930619;28;20462;-68
2023/02/26 03:42:27;;;;;;;2.80;1.40;;;2.30;99.90;;;;;;4933222;28;20487;-69
2023/02/26 03:45:07;;;;;;;4.03;1.40;;;2.20;99.90;;;;;;4906620;29;20465;-68
2023/02/26 03:47:34;;;;;;;2.40;1.63;;;2.20;99.90;;;;;;4918983;29;20470;-68
2023/02/26 03:50:12;;;;;;;1.97;1.53;;;2.30;99.90;;;;;;4928504;28;21000;-68
2023/02/26 03:52:52;;;;;;;2.87;1.10;;;2.40;99.90;;;;;;4921358;29;20469;-69
2023/02/26 03:55:47;;;;;;;1.43;1.33;;;2.40;99.90;;;;;;4904183;28;20469;-68
2023/02/26 03:58:39;;;;;;;1.67;1.53;;;2.40;99.90;;;;;;4908444;28;20493;-69
2023/02/26 04:01:31;;;;;;;3.67;1.90;;;2.40;99.90;;;;;;4928734;29;20547;-68
2023/02/26 04:04:04;;;;;;;3.33;1.77;;;2.40;99.90;;;;;;4928526;29;22864;-68
2023/02/26 04:06:31;;;;;;;1.50;1.40;;;2.40;99.90;;;;;;4917826;29;20538;-69
2023/02/26 04:08:57;;;;;;;1.53;1.43;;;2.20;99.90;;;;;;4941859;28;20991;-68
2023/02/26 04:11:24;;;;;;;1.73;1.60;;;2.20;99.90;;;;;;4929901;29;20517;-69
2023/02/26 04:13:50;;;;;;;4.83;2.00;;;2.00;99.90;;;;;;4926236;29;20234;-68
2023/02/26 04:16:17;;;;;;;1.50;1.40;;;1.90;99.90;;;;;;4923618;29;20551;-68
2023/02/26 04:18:44;;;;;;;2.10;1.20;;;2.00;99.90;;;;;;4930598;29;20225;-68
2023/02/26 04:21:15;;;;;;;1.47;1.37;;;2.10;99.90;;;;;;4924044;29;20454;-68
2023/02/26 04:23:42;;;;;;;6.23;2.10;;;2.10;99.90;;;;;;4912515;28;20312;-69
2023/02/26 04:26:08;;;;;;;3.07;1.70;;;2.10;99.90;;;;;;4930690;29;20809;-67
2023/02/26 04:28:38;;;;;;;1.20;1.10;;;2.10;99.90;;;;;;4947455;28;21003;-69
2023/02/26 04:31:05;;;;;;;6.63;1.60;;;2.10;99.90;;;;;;4927918;29;21065;-68
2023/02/26 04:33:32;;;;;;;1.50;1.40;;;2.10;99.90;;;;;;4930600;29;20525;-68
2023/02/26 04:35:59;;;;;;;2.13;1.47;;;2.10;99.90;;;;;;4945799;28;20459;-68
2023/02/26 04:38:25;;;;;;;2.50;1.90;;;2.00;99.90;;;;;;4939185;29;20489;-69
2023/02/26 04:40:51;;;;;;;2.33;1.67;;;2.00;99.90;;;;;;4916490;28;20521;-69
2023/02/26 04:43:18;;;;;;;5.20;2.00;;;2.00;99.90;;;;;;4933960;29;20461;-69
2023/02/26 04:45:52;;;;;;;2.13;1.60;;;2.00;99.90;;;;;;4933366;28;20465;-69
2023/02/26 04:48:18;;;;;;;4.23;1.50;;;2.00;99.90;;;;;;4934740;29;20481;-69
2023/02/26 04:50:44;;;;;;;1.63;1.47;;;2.10;99.90;;;;;;4914662;28;20220;-68
2023/02/26 04:53:10;;;;;;;3.63;2.03;;;1.90;99.90;;;;;;4946329;28;20467;-68
2023/02/26 04:55:38;;;;;;;3.67;1.37;;;1.80;99.90;;;;;;4935167;29;20466;-68
2023/02/26 04:58:04;;;;;;;1.70;1.60;;;1.90;99.90;;;;;;4927197;28;20458;-68
2023/02/26 05:00:30;;;;;;;1.30;1.10;;;1.90;99.90;;;;;;4933575;29;20873;-68
2023/02/26 05:02:56;;;;;;;2.00;1.70;;;1.80;99.90;;;;;;4934578;29;20230;-68
2023/02/26 05:05:22;;;;;;;2.33;1.40;;;1.70;99.90;;;;;;4934976;29;20482;-69
2023/02/26 05:07:48;;;;;;;1.37;1.23;;;1.80;99.90;;;;;;4935109;28;20473;-68
2023/02/26 05:10:14;;;;;;;4.40;1.63;;;1.80;99.90;;;;;;4927644;29;20260;-69
2023/02/26 05:12:40;;;;;;;1.90;1.70;;;1.80;99.90;;;;;;4942794;28;20240;-68
2023/02/26 05:15:06;;;;;;;3.27;1.80;;;1.80;99.90;;;;;;4932554;28;20228;-67
2023/02/26 05:17:31;;;;;;;1.97;1.60;;;1.80;99.90;;;;;;4942476;28;20243;-69
2023/02/26 05:19:57;;;;;;;1.80;1.60;;;1.80;99.90;;;;;;4925467;29;20661;-68
2023/02/26 05:22:23;;;;;;;1.40;1.30;;;1.70;99.90;;;;;;4922110;28;20270;-69
2023/02/26 05:24:48;;;;;;;2.87;1.80;;;1.80;99.90;;;;;;4926195;28;20281;-69
2023/02/26 05:27:15;;;;;;;3.17;2.07;;;1.80;99.90;;;;;;4932216;28;20221;-69
2023/02/26 05:29:44;;;;;;;1.83;1.30;;;1.80;99.90;;;;;;4922616;28;20231;-68
2023/02/26 05:32:12;;;;;;;1.70;1.20;;;1.70;99.90;;;;;;4928708;29;20472;-69
2023/02/26 05:34:38;;;;;;;2.70;1.67;;;1.70;99.90;;;;;;4923453;28;20524;-69
2023/02/26 05:37:04;;;;;;;1.40;1.30;;;1.60;99.90;;;;;;4938480;28;20469;-69
2023/02/26 05:39:29;;;;;;;2.03;1.83;;;1.50;99.90;;;;;;4919737;29;20222;-69
2023/02/26 05:41:55;;;;;;;4.90;2.03;;;1.50;99.90;;;;;;4924261;29;20219;-68
2023/02/26 05:44:22;;;;;;;1.73;1.63;;;1.50;99.90;;;;;;4920678;28;20285;-68
2023/02/26 05:46:48;;;;;;;3.00;1.27;;;1.40;99.90;;;;;;4920254;28;20467;-69
2023/02/26 05:49:13;;;;;;;2.03;1.63;;;1.30;99.90;;;;;;4922022;29;21073;-69
2023/02/26 05:51:41;;;;;;;1.77;1.20;;;1.50;99.90;;;;;;4924712;28;20218;-68
2023/02/26 05:54:08;;;;;;;1.70;1.33;;;1.50;99.90;;;;;;4928856;28;20688;-68
2023/02/26 05:56:34;;;;;;;2.07;1.67;;;1.60;99.90;;;;;;4909634;29;20466;-69
2023/02/26 05:59:00;;;;;;;1.63;1.20;;;1.60;99.90;;;;;;4921751;29;20497;-70
2023/02/26 06:01:25;;;;;;;2.80;1.40;;;1.50;99.90;;;;;;4915704;29;20224;-71
2023/02/26 06:03:51;;;;;;;2.17;1.37;;;1.50;99.90;;;;;;4919059;28;20245;-69
2023/02/26 06:06:17;;;;;;;1.47;1.37;;;1.50;99.90;;;;;;4924287;29;20297;-69
2023/02/26 06:08:44;;;;;;;1.67;1.57;;;1.50;99.90;;;;;;4902270;29;20230;-69
2023/02/26 06:11:10;;;;;;;2.17;1.17;;;1.40;99.90;;;;;;4919962;29;20231;-68
2023/02/26 06:13:35;;;;;;;0.73;0.73;;;1.40;99.90;;;;;;4924040;29;20612;-69
2023/02/26 06:16:01;;;;;;;1.40;1.30;;;1.40;99.90;;;;;;4921900;29;20225;-69
2023/02/26 06:18:27;;;;;;;1.50;1.10;;;1.40;99.90;;;;;;4905130;29;20301;-68
2023/02/26 06:20:53;;;;;;;4.00;1.43;;;1.40;99.90;;;;;;4906986;29;20485;-69
2023/02/26 06:23:18;;;;;;;1.50;1.10;;;1.40;99.90;;;;;;4922638;29;20453;-70
2023/02/26 06:25:44;;;;;;;1.70;1.10;;;1.40;99.90;;;;;;4915528;28;20230;-69
2023/02/26 06:28:10;;;;;;;1.00;0.83;;;1.40;99.90;;;;;;4927180;29;20313;-67
2023/02/26 06:30:36;;;;;;;3.73;1.60;;;1.40;99.90;;;;;;4908506;29;20340;-70
2023/02/26 06:33:02;;;;;;;1.07;0.97;;;1.40;99.90;;;;;;4921076;28;20286;-69
2023/02/26 06:35:28;;;;;;;1.40;1.10;;;1.40;99.90;;;;;;4926562;28;20558;-69
2023/02/26 06:37:55;;;;;;;1.23;1.17;;;1.30;99.90;;;;;;4918933;28;20796;-69
2023/02/26 06:40:21;;;;;;;1.77;1.30;;;1.30;99.90;;;;;;4921439;28;20477;-69
2023/02/26 06:42:47;;;;;;;3.63;1.20;;;1.30;99.90;;;;;;4921261;28;20479;-69
2023/02/26 06:45:13;;;;;;;4.47;1.23;;;1.10;99.90;;;;;;4929801;29;20469;-69
2023/02/26 06:47:38;;;;;;;1.23;1.13;;;1.10;99.90;;;;;;4943850;28;20226;-69
2023/02/26 06:50:05;;;;;;;2.17;1.10;;;1.10;99.90;;;;;;4932935;28;20227;-68
2023/02/26 06:52:31;;;;;;;0.93;0.90;;;1.20;99.90;;;;;;4929594;28;20269;-70
2023/02/26 06:54:57;;;;;;;3.20;1.70;;;1.10;99.90;;;;;;4924219;29;20489;-68
2023/02/26 06:57:23;;;;;;;1.97;1.10;;;1.20;99.90;;;;;;4947928;28;20486;-69
2023/02/26 06:59:49;;;;;;;0.60;0.60;;;1.20;99.90;;;;;;4924571;28;20474;-69
2023/02/26 07:02:17;;;;;;;1.50;1.40;;;1.20;99.90;;;;;;4910179;29;20270;-70
2023/02/26 07:04:43;;;;;;;1.70;1.10;;;1.30;99.90;;;;;;4940064;28;20500;-69
2023/02/26 07:07:09;;;;;;;1.13;0.90;;;1.30;99.90;;;;;;4909640;29;21021;-68
2023/02/26 07:09:35;;;;;;;3.37;1.40;;;1.30;99.90;;;;;;4907795;29;20226;-69
2023/02/26 07:12:00;;;;;;;3.43;1.80;;;1.40;99.90;;;;;;4925498;28;20540;-68
2023/02/26 07:14:26;;;;;;;1.50;1.40;;;1.30;99.90;;;;;;4927284;29;20217;-69
2023/02/26 07:16:52;;;;;;;0.83;0.80;;;1.30;99.90;;;;;;4922060;28;20215;-69
2023/02/26 07:19:17;;;;;;;1.93;1.40;;;1.30;99.90;;;;;;4925562;29;20229;-69
2023/02/26 07:21:43;;;;;;;1.50;0.80;;;1.30;99.90;;;;;;4924257;28;20635;-68
2023/02/26 07:24:09;;;;;;;5.90;1.27;;;1.30;99.90;;;;;;4925145;28;20218;-69
2023/02/26 07:26:34;;;;;;;1.10;1.00;;;1.30;99.90;;;;;;4928053;28;20716;-69
2023/02/26 07:29:00;;;;;;;1.90;0.90;;;1.40;99.90;;;;;;4924177;29;20316;-69
2023/02/26 07:31:26;;;;;;;0.93;0.67;;;1.30;99.90;;;;;;4927562;29;20227;-69
2023/02/26 07:33:52;;;;;;;1.20;0.97;;;1.30;99.90;;;;;;4927061;28;20831;-69
2023/02/26 07:36:18;;;;;;;1.20;1.00;;;1.20;99.90;;;;;;4927706;28;20561;-67
2023/02/26 07:38:44;;;;;;;2.53;1.03;;;1.30;99.90;;;;;;4925641;28;20234;-68
2023/02/26 07:41:09;;;;;;;2.80;0.80;;;1.40;99.90;;;;;;4929611;29;20225;-70
2023/02/26 07:43:35;;;;;;;3.20;0.93;;;1.30;99.90;;;;;;4926036;29;20222;-69
2023/02/26 07:46:00;;;;;;;2.60;1.30;;;1.30;99.90;;;;;;4927400;28;20225;-69
2023/02/26 07:48:26;;;;;;;2.63;1.40;;;1.30;99.90;;;;;;4927988;28;20226;-69
2023/02/26 07:50:52;;;;;;;3.70;1.70;;;1.40;99.90;;;;;;4927993;28;20237;-68
2023/02/26 07:53:19;;;;;;;1.37;1.27;;;1.30;99.90;;;;;;4909627;29;20270;-69
2023/02/26 07:55:44;;;;;;;1.63;1.03;;;1.30;99.90;;;;;;4925847;28;20504;-69
2023/02/26 07:58:10;;;;;;;1.30;0.83;;;1.30;99.90;;;;;;4941874;28;20988;-69
2023/02/26 08:00:35;;;;;;;1.83;1.50;;;1.30;99.90;;;;;;4928308;28;20219;-69
2023/02/26 08:03:01;;;;;;;6.63;1.77;;;1.40;99.90;;;;;;4923969;28;20222;-69
2023/02/26 08:05:27;;;;;;;1.30;1.20;;;1.40;99.90;;;;;;4909216;29;20337;-69
2023/02/26 08:07:52;;;;;;;2.90;1.03;;;1.50;99.90;;;;;;4922562;28;20218;-69
2023/02/26 08:10:18;;;;;;;1.37;1.27;;;1.50;99.90;;;;;;4926205;29;20245;-68
2023/02/26 08:12:44;;;;;;;1.20;1.10;;;1.50;99.90;;;;;;4927532;29;20222;-69
2023/02/26 08:15:13;;;;;;;1.57;1.47;;;1.40;99.90;;;;;;4922851;29;20274;-69
2023/02/26 08:17:39;;;;;;;2.23;1.40;;;1.50;99.90;;;;;;4928986;28;20229;-69
2023/02/26 08:20:07;;;;;;;1.67;1.13;;;1.50;99.90;;;;;;4923296;29;20479;-69
2023/02/26 08:22:32;;;;;;;1.23;1.13;;;1.40;99.90;;;;;;4926423;29;20463;-69
2023/02/26 08:24:59;;;;;;;1.13;1.03;;;1.40;99.90;;;;;;4928055;28;22053;-69
2023/02/26 08:27:24;;;;;;;1.00;1.00;;;1.50;99.90;;;;;;4925162;29;20293;-69
2023/02/26 08:29:50;;;;;;;1.77;1.23;;;1.40;99.90;;;;;;4926608;29;20474;-68
2023/02/26 08:32:18;;;;;;;1.50;1.00;;;1.30;99.90;;;;;;4926972;29;20262;-69
2023/02/26 08:34:45;;;;;;;1.43;1.33;;;1.40;99.90;;;;;;4937251;28;20218;-69
2023/02/26 08:37:11;;;;;;;1.13;1.00;;;1.40;99.90;;;;;;4921437;28;20556;-67
2023/02/26 08:39:37;;;;;;;1.50;1.00;;;1.40;99.90;;;;;;4936722;28;20880;-69
2023/02/26 08:42:07;;;;;;;2.07;1.20;;;1.50;99.90;;;;;;4907660;29;20699;-68
2023/02/26 08:44:33;;;;;;;1.13;1.03;;;1.50;99.90;;;;;;4924281;29;20468;-69
2023/02/26 08:46:59;;;;;;;1.00;0.90;;;1.50;99.90;;;;;;4925698;28;20442;-68
2023/02/26 08:49:25;;;;;;;1.47;1.00;;;1.50;99.90;;;;;;4925592;29;20251;-69
2023/02/26 08:51:50;;;;;;;1.10;1.10;;;1.50;99.90;;;;;;4926131;28;20488;-69
2023/02/26 08:54:16;;;;;;;0.97;0.97;;;1.50;99.90;;;;;;4924408;29;20612;-69
2023/02/26 08:56:42;;;;;;;3.00;1.20;;;1.50;99.90;;;;;;4922305;28;20572;-68
2023/02/26 08:59:10;;;;;;;1.10;1.00;;;1.50;99.90;;;;;;4926057;29;20240;-68
2023/02/26 09:01:35;;;;;;;1.53;1.40;;;1.50;99.90;;;;;;4942510;28;20662;-68
2023/02/26 09:04:01;;;;;;;1.60;1.13;;;1.50;99.90;;;;;;4921578;28;20558;-68
2023/02/26 09:06:27;;;;;;;1.10;0.97;;;1.40;99.90;;;;;;4924854;29;20214;-67
2023/02/26 09:08:52;;;;;;;5.30;1.83;;;1.50;99.90;;;;;;4905211;28;20696;-69
2023/02/26 09:11:18;;;;;;;1.27;1.20;;;1.50;99.90;;;;;;4928371;29;20325;-68
2023/02/26 09:13:44;;;;;;;1.43;1.20;;;1.50;99.90;;;;;;4940699;28;20296;-67
2023/02/26 09:16:09;;;;;;;1.30;1.20;;;1.60;99.90;;;;;;4930252;28;20217;-67
2023/02/26 09:18:35;;;;;;;2.37;1.20;;;1.60;99.90;;;;;;4925308;29;20230;-68
2023/02/26 09:21:01;;;;;;;1.50;1.00;;;1.60;99.90;;;;;;4928700;28;20241;-67
2023/02/26 09:23:28;;;;;;;1.10;1.00;;;1.60;99.90;;;;;;4938881;28;20239;-68
2023/02/26 09:25:55;;;;;;;1.17;1.00;;;1.60;99.90;;;;;;4926777;28;20481;-68
2023/02/26 09:28:22;;;;;;;1.00;1.00;;;1.60;99.90;;;;;;4925375;29;21046;-68
2023/02/26 09:30:51;;;;;;;1.17;0.90;;;1.60;99.90;;;;;;4922853;28;20481;-68
2023/02/26 09:33:17;;;;;;;1.20;1.10;;;1.60;99.90;;;;;;4942336;28;20474;-68
2023/02/26 09:35:43;;;;;;;1.53;0.90;;;1.70;99.90;;;;;;4927908;28;20498;-69
2023/02/26 09:38:09;;;;;;;0.90;0.90;;;1.70;99.90;;;;;;4912567;29;21072;-68
2023/02/26 09:40:47;;;;;;;1.73;1.07;;;1.60;99.90;;;;;;4911763;29;20222;-68
2023/02/26 09:43:47;;;;;;;2.40;0.87;;;1.70;99.90;;;;;;4943267;28;20472;-69
2023/02/26 09:46:31;;;;;;;1.40;1.00;;;1.70;99.90;;;;;;4921877;28;20473;-68
2023/02/26 09:49:14;;;;;;;0.73;0.70;;;1.60;99.90;;;;;;4917358;28;20510;-68
2023/02/26 09:51:40;;;;;;;1.77;1.37;;;1.70;99.90;;;;;;4932966;28;20477;-69
2023/02/26 09:54:17;;;;;;;0.93;0.90;;;1.70;99.90;;;;;;4938219;28;20471;-67
2023/02/26 09:56:43;;;;;;;1.00;0.97;;;1.70;99.90;;;;;;4903933;28;21025;-69
2023/02/26 09:59:10;;;;;;;1.17;0.97;;;1.80;99.90;;;;;;4921439;28;20481;-68
2023/02/26 10:02:02;;;;;;;1.43;1.03;;;1.80;99.90;;;;;;4921988;29;21023;-69
2023/02/26 10:04:57;;;;;;;1.90;1.40;;;1.80;99.90;;;;;;4899919;28;20485;-68
2023/02/26 10:07:26;;;;;;;1.33;0.90;;;1.70;99.90;;;;;;4920861;29;20996;-68
2023/02/26 10:10:15;;;;;;;0.63;0.63;;;1.70;99.90;;;;;;4920715;28;20482;-68
2023/02/26 10:12:43;;;;;;;2.07;0.87;;;1.70;99.90;;;;;;4928807;28;20487;-69
2023/02/26 10:15:19;;;;;;;0.80;0.70;;;1.80;99.90;;;;;;4922460;29;20490;-66
2023/02/26 10:18:18;;;;;;;1.17;1.07;;;1.80;99.90;;;;;;4919300;28;20507;-67
2023/02/26 10:20:58;;;;;;;0.50;0.50;;;1.80;99.90;;;;;;4929168;28;21052;-66
2023/02/26 10:23:48;;;;;;;2.43;1.00;;;1.80;99.90;;;;;;4926319;29;20523;-68
2023/02/26 10:26:26;;;;;;;0.93;0.70;;;1.70;99.90;;;;;;4924821;29;20607;-68
2023/02/26 10:29:10;;;;;;;1.00;0.90;;;1.80;99.90;;;;;;4920738;28;20500;-67
2023/02/26 10:31:39;;;;;;;0.90;0.90;;;1.80;99.90;;;;;;4917776;28;20465;-68
2023/02/26 10:34:21;;;;;;;0.90;0.90;;;1.80;99.90;;;;;;4920856;29;20577;-68
2023/02/26 10:37:25;;;;;;;0.90;0.90;;;1.80;99.90;;;;;;4917274;28;20478;-68
2023/02/26 10:40:15;;;;;;;1.30;1.20;;;1.90;99.90;;;;;;4915692;28;20481;-67
2023/02/26 10:43:13;;;;;;;1.50;1.40;;;1.90;99.90;;;;;;4902502;29;20474;-68
2023/02/26 10:45:39;;;;;;;6.07;1.37;;;2.00;99.90;;;;;;4927041;28;20510;-69
2023/02/26 10:48:28;;;;;;;1.00;1.00;;;2.00;99.90;;;;;;4919662;29;20457;-68
2023/02/26 10:51:04;;;;;;;1.30;1.20;;;2.10;99.90;;;;;;4932337;28;20708;-68
2023/02/26 10:53:31;;;;;;;1.00;0.90;;;2.20;99.90;;;;;;4915945;28;20472;-68
2023/02/26 10:56:08;;;;;;;4.73;2.40;;;2.30;99.90;;;;;;4915202;28;20483;-68
2023/02/26 10:58:34;;;;;;;3.23;2.27;;;2.30;99.90;;;;;;4928239;28;20559;-69
2023/02/26 11:01:00;;;;;;;1.73;1.27;;;2.50;99.90;;;;;;4917737;28;20665;-69
2023/02/26 11:03:37;;;;;;;0.90;0.90;;;2.50;99.90;;;;;;4905269;29;20312;-70
2023/02/26 11:06:04;;;;;;;0.83;0.83;;;2.50;99.90;;;;;;4921217;28;20473;-68
2023/02/26 11:08:33;;;;;;;2.30;1.00;;;2.50;99.90;;;;;;4918304;28;20509;-68
2023/02/26 11:11:01;;;;;;;1.10;1.00;;;2.50;99.90;;;;;;4910817;28;21051;-68
2023/02/26 11:13:30;;;;;;;1.20;0.93;;;2.50;99.90;;;;;;4903898;29;20475;-69
2023/02/26 11:16:00;;;;;;;0.60;0.60;;;2.40;99.90;;;;;;4937373;28;21090;-69
2023/02/26 11:18:39;;;;;;;2.17;1.30;;;2.40;99.90;;;;;;4920351;28;20485;-69
2023/02/26 11:21:07;;;;;;;0.63;0.60;;;2.40;99.90;;;;;;4917715;29;20947;-70
2023/02/26 11:23:34;;;;;;;2.30;0.80;;;2.40;99.90;;;;;;4921646;29;20483;-69
2023/02/26 11:26:13;;;;;;;1.20;1.10;;;2.40;99.90;;;;;;4919531;29;20533;-69
2023/02/26 11:28:45;;;;;;;0.80;0.80;;;2.40;99.90;;;;;;4898235;29;20471;-69
2023/02/26 11:31:16;;;;;;;1.10;1.00;;;2.50;99.90;;;;;;4919790;29;21007;-68
2023/02/26 11:34:03;;;;;;;0.90;0.90;;;2.50;99.90;;;;;;4914228;28;20888;-68
2023/02/26 11:36:32;;;;;;;2.90;2.00;;;2.60;99.90;;;;;;4936639;28;20718;-69
2023/02/26 11:39:03;;;;;;;1.80;1.70;;;2.50;99.90;;;;;;4920149;29;20486;-69
2023/02/26 11:41:30;;;;;;;1.37;0.90;;;2.50;99.90;;;;;;4921506;29;20470;-69
2023/02/26 11:44:01;;;;;;;0.57;0.57;;;2.50;99.90;;;;;;4942342;28;20497;-69
2023/02/26 11:46:27;;;;;;;1.33;0.90;;;2.50;99.90;;;;;;4916480;29;20459;-69
2023/02/26 11:48:56;;;;;;;1.00;0.83;;;2.50;99.90;;;;;;4920213;29;20487;-69
2023/02/26 11:51:25;;;;;;;1.07;0.97;;;2.60;99.90;;;;;;4920788;29;20282;-69
2023/02/26 11:53:52;;;;;;;0.77;0.77;;;2.60;99.90;;;;;;4921734;29;20565;-69
2023/02/26 11:56:37;;;;;;;0.83;0.83;;;2.60;99.90;;;;;;4921384;29;20448;-69
2023/02/26 11:59:19;;;;;;;1.60;1.50;;;2.60;99.90;;;;;;4928286;29;20478;-68
2023/02/26 12:01:44;;;;;;;3.47;1.17;;;2.60;99.90;;;;;;4912242;29;20552;-69
2023/02/26 12:04:14;;;;;;;0.70;0.63;;;2.60;99.90;;;;;;4909681;29;21053;-69
2023/02/26 12:06:40;;;;;;;1.23;0.80;;;2.60;99.90;;;;;;4917248;29;20772;-68
2023/02/26 12:09:13;;;;;;;0.70;0.60;;;2.60;99.90;;;;;;4913212;29;20467;-69
2023/02/26 12:12:10;;;;;;;0.50;0.50;;;2.70;99.90;;;;;;4917974;29;20471;-69
2023/02/26 12:15:03;;;;;;;0.70;0.70;;;2.70;99.90;;;;;;4911145;29;20464;-70
2023/02/26 12:17:57;;;;;;;1.83;1.10;;;2.70;99.90;;;;;;4925337;29;20469;-69
2023/02/26 12:20:29;;;;;;;3.37;1.00;;;2.70;99.90;;;;;;4942960;28;20916;-69
2023/02/26 12:23:10;;;;;;;0.60;0.60;;;2.70;99.90;;;;;;4951370;28;20462;-69
2023/02/26 12:25:38;;;;;;;1.63;1.37;;;2.60;99.90;;;;;;4926775;29;20485;-68
2023/02/26 12:28:29;;;;;;;0.60;0.57;;;2.60;99.90;;;;;;4935667;28;20459;-69
2023/02/26 12:31:16;;;;;;;1.37;0.80;;;2.70;99.90;;;;;;4913542;29;20465;-69
2023/02/26 12:34:00;;;;;;;1.07;0.77;;;2.70;99.90;;;;;;4919214;29;20463;-68
2023/02/26 12:36:44;;;;;;;1.60;0.77;;;2.70;99.90;;;;;;4921110;28;20466;-69
2023/02/26 12:39:43;;;;;;;0.70;0.70;;;2.70;99.90;;;;;;4919262;29;20479;-68
2023/02/26 12:42:21;;;;;;;1.20;0.80;;;2.70;99.90;;;;;;4928314;29;20533;-69
2023/02/26 12:44:56;;;;;;;2.87;1.03;;;2.70;99.90;;;;;;4936192;28;20458;-68
2023/02/26 12:47:27;;;;;;;0.57;0.50;;;2.70;99.90;;;;;;4940210;28;20461;-68
2023/02/26 12:50:07;;;;;;;2.50;1.10;;;2.80;99.90;;;;;;4942270;28;20492;-68
2023/02/26 12:53:14;;;;;;;0.80;0.80;;;2.80;99.90;;;;;;4928173;29;20475;-69
2023/02/26 12:55:55;;;;;;;1.47;0.60;;;2.80;99.90;;;;;;4924494;28;20853;-69
2023/02/26 12:58:27;;;;;;;0.60;0.60;;;2.90;99.90;;;;;;4934279;29;20501;-68
2023/02/26 13:01:11;;;;;;;0.80;0.77;;;2.90;99.90;;;;;;4947261;28;20470;-69
2023/02/26 13:03:52;;;;;;;1.03;0.90;;;2.90;99.90;;;;;;4914642;29;20513;-69
2023/02/26 13:06:49;;;;;;;1.57;0.60;;;2.90;99.90;;;;;;4939553;28;20470;-68
2023/02/26 13:09:18;;;;;;;0.70;0.70;;;2.90;99.90;;;;;;4949912;28;20471;-69
2023/02/26 13:12:08;;;;;;;0.90;0.80;;;2.80;99.90;;;;;;4917898;29;20465;-69
2023/02/26 13:14:50;;;;;;;0.80;0.63;;;2.90;99.90;;;;;;4934136;29;20470;-69
2023/02/26 13:17:38;;;;;;;1.53;0.70;;;2.90;99.90;;;;;;4926559;29;20486;-69
2023/02/26 13:20:17;;;;;;;0.63;0.53;;;3.00;99.90;;;;;;4931064;28;20458;-67
2023/02/26 13:23:03;;;;;;;1.00;0.50;;;3.00;99.60;;;;;;4928536;29;21007;-68